PN00 weather

Crosswinds Airfield
Sassamansville, Pennsylvania, United States

Public forecast

Using degrees Fahrenheit for public forecast. Weather courtesy of forecast.io.

METAR (pilot weather report)

Closest report is Heritage Field, 6.3 nm (11.6 km) S. Retrieved 2019/07/23 14:54 UTC (29 minutes ago):

KPTW 231454Z AUTO 35004KT 10SM SCT018 BKN023 OVC029 22/19 A2987 RMK AO2 SLP110 60000 T02170189 50007

TAF (pilot weather forecast)

Closest forecast is Reading Regional Carl A Spaatz Field, 18.1 nm (33.5 km) W. Retrieved 2019/07/23 12:40 UTC (3 hours ago):

TAF KRDG 231138Z 2312/2412 29005KT P6SM VCSH SCT025 OVC060 TEMPO 2312/2315 BKN025 FM231700 33005KT P6SM OVC060 FM232000 36006KT P6SM BKN090 FM240600 VRB04KT P6SM SCT080